• Join FlightAware (Why Join?)
  • Login
  • US Flag 
09:36PM EST


 

Airport Tracker/Info


-or-


 

Live Flight TrackerFlight Track Log ✈ SWA2702 ✈ 01-May-2013 ✈ KSNA - KSFO

Flight Track Log - Related Links

Times and Time Zones

All times are in EDT time to prevent confusion due to time zone crossing. See the SWA2702 flight status page for this flight to view local times or setup timezone preferences in your user account.

Time Position Orientation Groundspeed Altitude Reporting Facility
EDT Latitude Longitude Course Direction KTS MPH feet Rate Location/Type
11:07AM 33.6525 -117.8828 196° South 130 150 1,600  Level Los Angeles Center
11:08AM 33.6144 -117.8958 196° South 140 161 3,000 2,340 Climbing Los Angeles Center
11:09AM 33.5417 -117.9306 202° Southwest 247 284 6,500 4,140 Climbing Los Angeles Center
11:10AM 33.4867 -117.9769 215° Southwest 248 285 11,600 4,020 Climbing Los Angeles Center
11:11AM 33.4292 -118.0194 212° Southwest 241 277 14,900 3,000 Climbing Los Angeles Center
11:12AM 33.3644 -118.0728 215° Southwest 269 310 17,900 3,000 Climbing Los Angeles Center
11:13AM 33.3569 -118.1603 264° West 284 327 21,100 1,800 Climbing Los Angeles Center
11:14AM 33.4206 -118.2458 312° West 336 387 21,700 960 Climbing Los Angeles Center
11:15AM 33.4989 -118.3542 311° West 419 482 23,100 1,980 Climbing Los Angeles Center
11:16AM 33.5989 -118.4928 311° West 451 519 25,800 2,640 Climbing Los Angeles Center
11:17AM 33.6831 -118.6097 311° West 455 524 28,600 2,580 Climbing Los Angeles Center
11:19AM 33.7658 -118.7256 311° West 453 521 31,200 2,220 Climbing Los Angeles Center
11:20AM 33.8458 -118.8372 311° West 442 509 33,700 2,040 Climbing Los Angeles Center
11:21AM 33.9408 -118.9700 311° West 437 503 35,900 1,080 Climbing Los Angeles Center
11:22AM 34.0206 -119.0814 311° West 439 505 36,000  Climbing Los Angeles Center
11:23AM 34.1006 -119.1931 311° West 440 506 36,000  Level Los Angeles Center
11:24AM 34.1942 -119.3275 310° West 437 503 36,000  Level Los Angeles Center
11:25AM 34.2739 -119.4397 311° West 439 505 36,000  Level Los Angeles Center
11:26AM 34.3533 -119.5522 311° West 439 505 36,000  Level Los Angeles Center
11:27AM 34.4319 -119.6639 310° West 440 506 36,000  Level Los Angeles Center
11:28AM 34.4950 -119.7558 310° West 443 510 36,000  Level Los Angeles Center
11:29AM 34.6111 -119.8836 318° Northwest 441 507 36,000  Level Los Angeles Center
11:30AM 34.7019 -119.9811 319° Northwest 438 504 36,000  Level Los Angeles Center
11:31AM 34.7906 -120.0811 317° Northwest 435 501 36,000  Level Los Angeles Center
11:32AM 34.8925 -120.1900 319° Northwest 444 511 36,000  Level Los Angeles Center
11:33AM 34.9822 -120.2886 318° Northwest 442 509 36,000  Level Los Angeles Center
11:34AM 35.0706 -120.3867 318° Northwest 438 504 36,000  Level Los Angeles Center
11:35AM 35.1592 -120.4847 318° Northwest 437 503 36,000  Level Los Angeles Center
11:37AM 35.2647 -120.6044 317° Northwest 436 502 36,000  Level Los Angeles Center
11:38AM 35.3722 -120.7244 318° Northwest 439 505 36,000  Level Los Angeles Center
11:38AM 35.4492 -120.7931 324° Northwest 433 498 36,000  Level Oakland Center
11:39AM 35.5683 -120.8983 324° Northwest 437 503 36,000  Level Oakland Center
11:40AM 35.6667 -120.9867 324° Northwest 438 504 36,000  Level Oakland Center
11:41AM 35.7650 -121.0736 324° Northwest 436 502 36,000  Level Oakland Center
11:43AM 35.8611 -121.1606 324° Northwest 432 497 36,000  Level Oakland Center
11:44AM 35.9592 -121.2478 324° Northwest 435 501 36,000  Level Oakland Center
11:45AM 36.0553 -121.3347 324° Northwest 431 496 36,000  Level Oakland Center
11:46AM 36.1525 -121.4200 325° Northwest 432 497 36,000 -600 Level Oakland Center
11:47AM 36.2478 -121.5058 324° Northwest 427 491 34,800 -2,280 Descending Oakland Center
11:48AM 36.3425 -121.5919 324° Northwest 426 490 31,400 -3,780 Descending Oakland Center
11:49AM 36.4608 -121.6978 324° Northwest 442 509 27,100 -3,840 Descending Oakland Center
11:49AM 36.5167 -121.7500 323° Northwest 433 498 25,100 -3,060 Descending Northern Cal TRACON
11:50AM 36.6167 -121.8333 326° Northwest 414 476 22,200 -2,880 Descending Northern Cal TRACON
11:51AM 36.7000 -121.9333 316° Northwest 404 465 19,400 -2,760 Descending Northern Cal TRACON
11:52AM 36.8000 -121.9833 338° Northwest 387 445 16,700 -2,700 Descending Northern Cal TRACON
11:53AM 36.8833 -122.0000 351° North 376 433 14,300 -2,640 Descending Northern Cal TRACON
11:54AM 36.9419 -122.0150 348° North 373 429 12,800 -2,220 Descending Oakland Center
11:55AM 37.0383 -122.0408 348° North 356 410 10,800 -1,380 Descending Oakland Center
11:56AM 37.1225 -122.0636 348° North 311 358 10,000 -1,080 Descending Oakland Center
11:57AM 37.1967 -122.0831 348° North 276 318 8,600 -1,380 Descending Oakland Center
11:58AM 37.2711 -122.1019 349° North 272 313 7,200 -1,140 Descending Oakland Center
11:59AM 37.3536 -122.1106 355° North 248 285 6,400 -900 Descending Oakland Center
12:00PM 37.4142 -122.1078 North 223 257 5,400 -840 Descending Oakland Center
12:01PM 37.4833 -122.1167 354° North 214 246 4,600 -780 Descending Northern Cal TRACON
12:02PM 37.5181 -122.1456 327° Northwest 197 227 3,900 -1,020 Descending Oakland Center
12:03PM 37.5475 -122.2036 303° West 195 224 2,700 -1,080 Descending Oakland Center
12:04PM 37.5700 -122.2617 296° West 191 220 1,800 -960 Descending Oakland Center
12:05PM 37.5894 -122.3100 297° West 173 199 800 -780 Descending Oakland Center
12:06PM 37.6078 -122.3547 297° West 152 175 300 -540 Descending Oakland Center
12:08PM 37.6167 -122.3667 322° Northwest  Level FlightAware Approximate
12:15PM 37.6191 -122.3752 322° Northwest  Level Estimated